Flight Track Log - Related Links

Times and Time Zones

All times are in EDT time to prevent confusion due to time zone crossing. See the N92PK flight status page for this flight to view local times or setup timezone preferences in your user account.

Time Position Orientation Groundspeed Altitude Reporting Facility
EDT Latitude Longitude Course Direction KTS MPH feet Rate Location/Type
Fri 12:53:29 PM 38.0210 -84.6180 180° South 113 130 1,500  Level FlightAware ADS-B
Fri 12:53:51 PM 38.0090 -84.6150 169° South 116 133 1,900 1,000 Climbing FlightAware ADS-B
Fri 12:54:11 PM 37.9990 -84.6110 163° South 122 140 2,200 923 Climbing FlightAware ADS-B
Fri 12:54:17 PM 37.9950 -84.6080 149° Southeast 130 150 2,300 750 Climbing FlightAware ADS-B
Fri 12:54:27 PM 37.9920 -84.6010 119° Southeast 139 160 2,400 857 Climbing FlightAware ADS-B
Fri 12:54:45 PM 37.9860 -84.5880 120° Southeast 139 160 2,700 857 Climbing FlightAware ADS-B
Fri 12:55:09 PM 37.9780 -84.5720 122° Southeast 142 163 3,000 600 Climbing FlightAware ADS-B
Fri 12:55:15 PM 37.9760 -84.5670 117° Southeast 143 165 3,000 667 Level FlightAware ADS-B
Fri 12:55:45 PM 37.9650 -84.5460 124° Southeast 144 166 3,400 840 Climbing FlightAware ADS-B
Fri 12:56:05 PM 37.9590 -84.5320 119° Southeast 143 165 3,700 947 Climbing FlightAware ADS-B
Fri 12:56:23 PM 37.9520 -84.5190 124° Southeast 141 162 4,000 1,105 Climbing FlightAware ADS-B
Fri 12:56:43 PM 37.9450 -84.5050 122° Southeast 140 161 4,400 1,000 Climbing FlightAware ADS-B
Fri 12:57:05 PM 37.9380 -84.4890 119° Southeast 143 165 4,700 947 Climbing FlightAware ADS-B
Fri 12:57:21 PM 37.9320 -84.4780 125° Southeast 142 163 5,000 1,000 Climbing FlightAware ADS-B
Fri 12:57:41 PM 37.9250 -84.4630 121° Southeast 147 169 5,300 750 Climbing FlightAware ADS-B
Fri 12:58:01 PM 37.9180 -84.4490 122° Southeast 151 174 5,500 882 Climbing FlightAware ADS-B
Fri 12:58:15 PM 37.9120 -84.4380 125° Southeast 149 171 5,800 1,105 Climbing FlightAware ADS-B
Fri 12:58:39 PM 37.9040 -84.4200 119° Southeast 147 169 6,200 955 Climbing FlightAware ADS-B
Fri 12:58:59 PM 37.8970 -84.4060 122° Southeast 149 171 6,500 973 Climbing FlightAware ADS-B
Fri 12:59:16 PM 37.8900 -84.3930 124° Southeast 147 169 6,800 955 Climbing FlightAware ADS-B
Fri 12:59:43 PM 37.8810 -84.3730 120° Southeast 148 170 7,200 933 Climbing FlightAware ADS-B
Fri 01:00:01 PM 37.8740 -84.3600 124° Southeast 146 168 7,500 1,000 Climbing FlightAware ADS-B
Fri 01:00:13 PM 37.8690 -84.3500 122° Southeast 150 173 7,700 882 Climbing FlightAware ADS-B
Fri 01:00:35 PM 37.8610 -84.3340 122° Southeast 151 174 8,000 750 Climbing FlightAware ADS-B
Fri 01:00:53 PM 37.8550 -84.3210 120° Southeast 151 174 8,200 789 Climbing FlightAware ADS-B
Fri 01:01:13 PM 37.8480 -84.3060 121° Southeast 154 177 8,500 900 Climbing FlightAware ADS-B
Fri 01:01:33 PM 37.8400 -84.2900 122° Southeast 153 176 8,800 947 Climbing FlightAware ADS-B
Fri 01:01:51 PM 37.8330 -84.2760 122° Southeast 154 177 9,100 833 Climbing FlightAware ADS-B
Fri 01:02:09 PM 37.8260 -84.2620 122° Southeast 156 180 9,300 632 Climbing FlightAware ADS-B
Fri 01:02:29 PM 37.8190 -84.2470 121° Southeast 157 181 9,500 789 Climbing FlightAware ADS-B
Fri 01:02:47 PM 37.8120 -84.2330 122° Southeast 157 181 9,800 732 Climbing FlightAware ADS-B
Fri 01:03:10 PM 37.8030 -84.2150 122° Southeast 170 196 10,000 333 Climbing FlightAware ADS-B
Fri 01:03:23 PM 37.7960 -84.2030 126° Southeast 177 204 10,000 612 Level FlightAware ADS-B
Fri 01:03:59 PM 37.7820 -84.1720 120° Southeast 172 198 10,500 750 Climbing FlightAware ADS-B
Fri 01:04:35 PM 37.7660 -84.1410 123° Southeast 172 198 10,900 333 Climbing FlightAware ADS-B
Fri 01:05:11 PM 37.7500 -84.1100 123° Southeast 185 213 10,900  Level FlightAware ADS-B
Fri 01:05:43 PM 37.7350 -84.0800 122° Southeast 187 215 10,900  Level FlightAware ADS-B
Fri 01:06:16 PM 37.7210 -84.0500 121° Southeast 186 214 10,900  Level FlightAware ADS-B
Fri 01:06:57 PM 37.7020 -84.0110 122° Southeast 186 214 10,900  Level FlightAware ADS-B
Fri 01:07:29 PM 37.6870 -83.9820 123° Southeast 187 215 10,900  Level FlightAware ADS-B
Fri 01:08:05 PM 37.6700 -83.9480 122° Southeast 188 216 10,900  Level FlightAware ADS-B
Fri 01:08:37 PM 37.6550 -83.9180 122° Southeast 189 217 10,900  Level FlightAware ADS-B
Fri 01:09:15 PM 37.6380 -83.8830 122° Southeast 188 216 10,900  Level FlightAware ADS-B
Fri 01:09:49 PM 37.6220 -83.8520 123° Southeast 187 215 10,900  Level FlightAware ADS-B
Fri 01:10:24 PM 37.6070 -83.8220 122° Southeast 189 217 10,900  Level FlightAware ADS-B
Fri 01:11:29 PM 37.5750 -83.7580 122° Southeast 191 220 10,900  Level FlightAware ADS-B
Fri 01:12:01 PM 37.5600 -83.7280 122° Southeast 191 220 10,900  Level FlightAware ADS-B
Fri 01:12:39 PM 37.5420 -83.6910 122° Southeast 191 220 10,900  Level FlightAware ADS-B
Fri 01:13:20 PM 37.5240 -83.6560 123° Southeast 191 220 10,900  Level FlightAware ADS-B
Fri 01:13:55 PM 37.5060 -83.6200 122° Southeast 191 220 10,900  Level FlightAware ADS-B
Fri 01:14:37 PM 37.4890 -83.5860 122° Southeast 191 220 10,900  Level FlightAware ADS-B
Fri 01:15:10 PM 37.4720 -83.5530 123° Southeast 189 217 10,900  Level FlightAware ADS-B
Fri 01:15:54 PM 37.4520 -83.5120 122° Southeast 189 217 10,900  Level FlightAware ADS-B
Fri 01:16:30 PM 37.4380 -83.4840 122° Southeast 189 217 10,900  Level FlightAware ADS-B
Fri 01:17:06 PM 37.4240 -83.4550 121° Southeast 189 217 10,900 76 Level FlightAware ADS-B
Fri 01:17:49 PM 37.4008 -83.4114 121° Southeast 190 219 11,000 57 Climbing Indianapolis Center
Fri 01:18:51 PM 37.3664 -83.3444 123° Southeast 194 223 11,000  Level Indianapolis Center
Fri 01:19:53 PM 37.3381 -83.2886 123° Southeast 190 219 11,000  Level Indianapolis Center
Fri 01:20:56 PM 37.3094 -83.2317 122° Southeast 191 220 11,000  Level Indianapolis Center
Fri 01:21:57 PM 37.2814 -83.1758 122° Southeast 189 217 11,000  Level Indianapolis Center
Fri 01:22:59 PM 37.2522 -83.1192 123° Southeast 192 221 11,000  Level Indianapolis Center
Fri 01:24:01 PM 37.2231 -83.0625 123° Southeast 193 222 11,000 -14 Level Indianapolis Center
Fri 01:29:54 PM 37.0479 -82.7214 123° Southeast 194 223 10,900 -11 Descending FlightAware ADS-B
Fri 01:33:02 PM 36.9576 -82.5472 123° Southeast 191 220 10,900  Level FlightAware ADS-B
Fri 01:33:42 PM 36.9384 -82.5102 123° Southeast 191 220 10,900  Level FlightAware ADS-B
Fri 01:34:47 PM 36.9070 -82.4499 123° Southeast 189 217 10,900 59 Level FlightAware ADS-B
Fri 01:35:23 PM 36.8936 -82.4247 123° Southeast 190 219 11,000 61 Climbing Indianapolis Center
Fri 01:36:25 PM 36.8658 -82.3694 122° Southeast 187 215 11,000  Level Indianapolis Center
Fri 01:37:26 PM 36.8369 -82.3142 123° Southeast 188 216 11,000  Level Indianapolis Center
Fri 01:38:28 PM 36.8078 -82.2608 124° Southeast 187 215 11,000  Level Indianapolis Center
Fri 01:39:30 PM 36.7744 -82.1950 122° Southeast 192 221 11,000  Level Indianapolis Center
Fri 01:40:32 PM 36.7433 -82.1394 125° Southeast 195 224 11,000  Level Indianapolis Center
Fri 01:41:34 PM 36.7147 -82.0847 123° Southeast 189 217 11,000  Level Indianapolis Center
Fri 01:42:33 PM 36.6861 -82.0300 123° Southeast 187 215 11,000  Level Atlanta Center
Fri 01:43:33 PM 36.6583 -81.9736 122° Southeast 192 221 11,000  Level Atlanta Center
Fri 01:44:33 PM 36.6261 -81.9203 127° Southeast 192 221 11,000  Level Atlanta Center
Fri 01:45:33 PM 36.5981 -81.8667 123° Southeast 187 215 11,000  Level Atlanta Center
Fri 01:46:33 PM 36.5697 -81.8106 122° Southeast 187 215 11,000  Level Atlanta Center
Fri 01:47:33 PM 36.5417 -81.7572 123° Southeast 192 221 11,000  Level Atlanta Center
Fri 01:48:33 PM 36.5114 -81.7011 124° Southeast 192 221 11,000  Level Atlanta Center
Fri 01:49:33 PM 36.4833 -81.6450 122° Southeast 192 221 11,000  Level Atlanta Center
Fri 01:50:33 PM 36.4531 -81.5919 125° Southeast 192 221 11,000  Level Atlanta Center
Fri 01:51:33 PM 36.4269 -81.5411 123° Southeast 192 221 11,000  Level Atlanta Center
Fri 01:52:33 PM 36.3989 -81.4878 123° Southeast 192 221 11,000  Level Atlanta Center
Fri 01:53:33 PM 36.3683 -81.4319 124° Southeast 192 221 11,000  Level Atlanta Center
Fri 01:54:33 PM 36.3403 -81.3789 123° Southeast 192 221 11,000  Level Atlanta Center
Fri 01:55:33 PM 36.3097 -81.3231 124° Southeast 192 221 11,000  Level Atlanta Center
Fri 01:56:33 PM 36.2814 -81.2700 124° Southeast 192 221 11,000  Level Atlanta Center
Fri 01:57:33 PM 36.2508 -81.2092 122° Southeast 186 214 11,000  Level Atlanta Center
Fri 01:58:33 PM 36.2244 -81.1508 119° Southeast 186 214 11,000  Level Atlanta Center
Fri 01:59:33 PM 36.2003 -81.0953 118° Southeast 186 214 11,000  Level Atlanta Center
Fri 02:00:33 PM 36.1739 -81.0369 119° Southeast 181 208 11,000  Level Atlanta Center
Fri 02:01:33 PM 36.1494 -80.9789 118° Southeast 181 208 11,000  Level Atlanta Center
Fri 02:02:33 PM 36.1231 -80.9208 119° Southeast 181 208 11,000  Level Atlanta Center
Fri 02:03:33 PM 36.0964 -80.8625 119° Southeast 181 208 11,000  Level Atlanta Center
Fri 02:04:33 PM 36.0700 -80.8044 119° Southeast 181 208 11,000  Level Atlanta Center
Fri 02:05:33 PM 36.0478 -80.7542 119° Southeast 181 208 11,000  Level Atlanta Center
Fri 02:06:33 PM 36.0211 -80.6961 120° Southeast 187 215 11,000  Level Atlanta Center
Fri 02:07:33 PM 35.9944 -80.6383 120° Southeast 187 215 11,000  Level Atlanta Center
Fri 02:08:33 PM 35.9656 -80.5700 118° Southeast 192 221 11,000 -250 Level Atlanta Center
Fri 02:09:33 PM 35.9389 -80.5175 122° Southeast 198 228 10,500 -500 Descending Atlanta Center
Fri 02:10:33 PM 35.9036 -80.4522 124° Southeast 203 234 10,000 -500 Descending Atlanta Center
Fri 02:11:33 PM 35.8625 -80.4028 136° Southeast 211 243 9,500 -500 Descending Atlanta Center
Fri 02:12:33 PM 35.8214 -80.3508 134° Southeast 211 243 9,000 -500 Descending Atlanta Center
Fri 02:14:00 PM 35.7638 -80.2961 132° Southeast  Level FlightAware Approximate
Fri 02:21:00 PM 35.5287 -79.9783 132° Southeast  Level FlightAware Approximate
Fri 02:22:00 PM 35.4950 -79.9331 132° Southeast  Level FlightAware Approximate
Fri 02:23:00 PM 35.4613 -79.8879 132° Southeast  Level FlightAware Approximate
Fri 02:24:00 PM 35.4277 -79.8427 132° Southeast  Level FlightAware Approximate
Fri 02:25:00 PM 35.3940 -79.7975 132° Southeast  Level FlightAware Approximate
Fri 02:26:00 PM 35.3586 -79.7544 136° Southeast  Level FlightAware Approximate
Fri 02:27:00 PM 35.3224 -79.7123 136° Southeast  Level FlightAware Approximate
Fri 02:28:00 PM 35.2863 -79.6701 136° Southeast  Level FlightAware Approximate
Fri 02:29:00 PM 35.2479 -79.6312 141° Southeast  Level FlightAware Approximate
Fri 02:30:00 PM 35.2092 -79.5925 141° Southeast  Level FlightAware Approximate
Fri 02:31:00 PM 35.2058 -79.5374 81° East  Level FlightAware Approximate
Fri 02:32:00 PM 35.2133 -79.4770 81° East  Level FlightAware Approximate
Fri 02:33:00 PM 35.2248 -79.4177 73° East  Level FlightAware Approximate
Fri 02:34:00 PM 35.2333 -79.3833 73° East  Level FlightAware Approximate
Fri 02:35:00 PM 35.2380 -79.3883 73° East  Level Estimated
Fri 02:36:00 PM 35.2333 -79.3833 73° East  Level FlightAware Approximate

Login

Don't have an account? Register now (free) for customized features, flight alerts, and more!